createdAt,value
2022-10-18T00:09:14.650Z,100742.16
2022-10-18T00:19:17.708Z,100738.06
2022-10-18T00:29:22.176Z,100733.88
2022-10-18T00:39:25.122Z,100731.34
2022-10-18T00:49:33.186Z,100729.16
2022-10-18T00:59:37.454Z,100726.22
2022-10-18T01:09:47.890Z,100723.38
2022-10-18T01:20:17.839Z,100718.38
2022-10-18T01:30:39.410Z,100717.16
2022-10-18T01:40:44.501Z,100716.28
2022-10-18T01:50:48.852Z,100715.28
2022-10-18T02:01:01.271Z,100714.75
2022-10-18T02:11:08.722Z,100713.66
2022-10-18T02:21:16.222Z,100713.22
2022-10-18T02:31:27.407Z,100704.84
2022-10-18T02:41:32.268Z,100701.28
2022-10-18T02:51:36.758Z,100694.38
2022-10-18T03:01:39.873Z,100693.72
2022-10-18T03:11:44.481Z,100692.00
2022-10-18T03:21:47.267Z,100690.44
2022-10-18T03:31:51.532Z,100689.03
2022-10-18T03:41:54.548Z,100687.50
2022-10-18T03:51:59.307Z,100683.69
2022-10-18T04:02:02.248Z,100679.91
2022-10-18T04:12:06.876Z,100677.34
2022-10-18T04:22:10.685Z,100674.44
2022-10-18T04:32:15.013Z,100669.59
2022-10-18T04:42:17.843Z,100667.66
2022-10-18T04:52:22.559Z,100665.00
2022-10-18T05:02:25.500Z,100663.81
2022-10-18T05:12:30.413Z,100658.50
2022-10-18T05:22:34.905Z,100657.09
2022-10-18T05:32:39.551Z,100655.69
2022-10-18T05:42:42.661Z,100653.53
2022-10-18T05:52:47.025Z,100651.19
2022-10-18T06:02:49.945Z,100648.47
2022-10-18T06:12:54.369Z,100646.06
2022-10-18T06:22:57.262Z,100640.84
2022-10-18T06:33:01.989Z,100637.63
2022-10-18T06:43:21.032Z,100632.31
2022-10-18T06:53:26.587Z,100623.84
2022-10-18T07:03:30.212Z,100618.00
2022-10-18T07:13:35.483Z,100612.81
2022-10-18T07:23:40.848Z,100607.84
2022-10-18T07:33:45.153Z,100602.03
2022-10-18T07:43:52.915Z,100597.09
2022-10-18T07:53:57.356Z,100588.56
2022-10-18T08:04:06.980Z,100579.88
2022-10-18T08:14:15.583Z,100572.34
2022-10-18T08:24:20.813Z,100562.47
2022-10-18T08:34:29.000Z,100553.19
2022-10-18T08:44:55.292Z,100544.94
2022-10-18T08:55:38.634Z,100528.06
2022-10-18T09:06:23.519Z,100519.28
2022-10-18T09:16:36.561Z,100504.28
2022-10-18T09:26:58.726Z,100486.34
2022-10-18T09:37:11.579Z,100469.00
2022-10-18T09:47:25.390Z,100458.06
2022-10-18T09:57:40.621Z,100444.47
2022-10-18T10:07:58.005Z,100432.56
2022-10-18T10:18:19.151Z,100411.25
2022-10-18T10:28:31.963Z,100393.44
2022-10-18T10:38:45.561Z,100378.53
2022-10-18T10:49:35.092Z,100366.09
2022-10-18T11:10:07.021Z,100332.72
2022-10-18T11:20:25.099Z,100317.19
2022-10-18T11:41:24.915Z,100282.91
2022-10-18T11:51:55.969Z,100266.41
2022-10-18T12:02:27.398Z,100246.03
2022-10-18T12:12:41.775Z,100226.75
2022-10-18T12:23:01.650Z,100213.09
2022-10-18T12:33:33.717Z,100198.63
2022-10-18T12:43:47.692Z,100183.78
2022-10-18T12:54:12.967Z,100168.09
2022-10-18T13:04:40.374Z,100150.84
2022-10-18T13:15:12.462Z,100136.25
2022-10-18T13:25:38.494Z,100120.03
2022-10-18T13:35:56.780Z,100095.91
2022-10-18T13:46:11.053Z,100072.00
2022-10-18T13:56:37.859Z,100055.22
2022-10-18T14:06:48.200Z,100035.53
2022-10-18T14:17:08.125Z,100017.44
2022-10-18T14:27:23.392Z,99996.16
2022-10-18T14:37:32.190Z,99980.38
2022-10-18T14:47:43.864Z,99956.38
2022-10-18T15:09:05.953Z,99921.34
2022-10-18T15:19:47.475Z,99904.91
2022-10-18T15:29:55.351Z,99881.94
2022-10-18T15:40:31.916Z,99867.09
2022-10-18T15:51:05.224Z,99852.88
2022-10-18T16:01:20.507Z,99834.75
2022-10-18T16:11:29.497Z,99812.38
2022-10-18T16:21:39.347Z,99792.53
2022-10-18T16:32:07.571Z,99779.81
2022-10-18T16:42:18.230Z,99766.72
2022-10-18T16:52:29.893Z,99755.41
2022-10-18T17:02:43.773Z,99736.84
2022-10-18T17:13:04.187Z,99710.84
2022-10-18T17:23:14.070Z,99701.81
2022-10-18T17:33:25.804Z,99692.72
2022-10-18T17:43:31.883Z,99680.78
2022-10-18T17:53:47.941Z,99670.34
2022-10-18T18:14:37.860Z,99650.00
2022-10-18T18:24:50.053Z,99644.69
2022-10-18T18:35:06.197Z,99641.66
2022-10-18T18:45:12.050Z,99633.09
2022-10-18T18:55:24.041Z,99630.75
2022-10-18T19:05:32.411Z,99628.94
2022-10-18T19:15:40.872Z,99624.44
2022-10-18T19:25:52.199Z,99623.19
2022-10-18T19:35:56.916Z,99622.09
2022-10-18T19:46:12.596Z,99623.47
2022-10-18T19:56:33.701Z,99621.50
2022-10-18T20:06:43.192Z,99619.31
2022-10-18T20:16:50.778Z,99619.66
2022-10-18T20:26:58.541Z,99618.22
2022-10-18T20:37:08.255Z,99617.97
2022-10-18T20:47:14.275Z,99614.03
2022-10-18T20:57:24.328Z,99615.47
2022-10-18T21:07:34.117Z,99620.59
2022-10-18T21:17:42.374Z,99623.81
2022-10-18T21:27:48.554Z,99624.25
2022-10-18T21:38:00.499Z,99627.91
2022-10-18T21:48:10.267Z,99631.91
2022-10-18T21:58:20.347Z,99638.16
2022-10-18T22:08:26.385Z,99643.53
2022-10-18T22:18:38.879Z,99643.69
2022-10-18T22:28:46.352Z,99645.47
2022-10-18T22:38:52.586Z,99649.03
2022-10-18T22:49:02.210Z,99652.91
2022-10-18T22:59:12.865Z,99651.06
2022-10-18T23:09:22.871Z,99653.63
2022-10-18T23:19:37.321Z,99657.63
2022-10-18T23:29:40.263Z,99658.31
2022-10-18T23:39:44.955Z,99657.75
2022-10-18T23:49:50.269Z,99659.50
2022-10-18T23:59:54.631Z,99661.47
